LSGL weather

Lausanne-Blécherette Airport
Lausanne, Canton of Vaud, Switzerland

Public forecast

Using degrees Celsius for public forecast. Weather courtesy of forecast.io.

Closest aviation weather report (METAR) to Lausanne-Blécherette Airport

Closest report is Payerne Air Base, 21.7 nm (40.2 km) NE. Retrieved 2019/10/21 03:20 UTC (9 minutes ago):

LSMP 210320Z AUTO 00000KT 3900NDV BR FEW014 SCT027 BKN032 12/12 Q1016 RMK

Closest aviation forecast (TAF) to Lausanne-Blécherette Airport

Forecast is more than 6 hours old.

Closest forecast is Payerne Air Base, 21.7 nm (40.2 km) NE. Retrieved 2019/10/20 17:00 UTC (10 hours ago):

TAF LSMP 201625Z 2017/2123 VRB03KT 8000 OVC008 BECMG 2021/2023 4500 BR BKN012 TEMPO 2101/2109 RA TEMPO 2112/2121 RA